Indio, CA

8:47 PM PST on December 17, 2014 (GMT -0800)
DesertWeather com | Change Station
CLOSE
Current Station
Personal Weather Station
Location: Thousand Palms, CA
Elevation: 275 ft
Nearby Weather Stations

Elev 275 ft 33.82 °N, 116.40 °W | Updated 3 seconds ago

Overcast
Overcast
55.1 °F
Feels Like 55.1 °F
N
0.0
Wind Variable Wind from East
Gusts 0.0 mph

Today
High -- | Low -- °F
--% Chance of Precip.
Yesterday
High -- | Low -- °F
Precip. -- in
6:44 AM 4:38 PM
Waning Crescent, 17% visible
Pressure 30.12 in
Visibility 10.0 miles
Clouds Mostly Cloudy 5000 ft
Overcast 7000 ft
Dew Point 49 °F
Humidity 81%
Rainfall 0.07 in
Snow Depth Not available.
UV 0 out of 12
Pollen 4.40 out of 12
Air Quality Not available.
Flu Activity Not available.
METAR KPSP 180353Z 29003KT 10SM BKN050 OVC070 13/09 A3011 RMK AO2 SLP197 T01330089

More Conditions Fewer Conditions

Pressure 30.12 in
Visibility 10.0 miles
Clouds Mostly Cloudy 5000 ft
Overcast 7000 ft
Dew Point 49 °F
Humidity 81%
Rainfall 0.07 in
Snow Depth Not available.
UV 0 out of 12
Pollen 4.40 out of 12
Air Quality Not available.
Flu Activity Not available.
METAR KPSP 180353Z 29003KT 10SM BKN050 OVC070 13/09 A3011 RMK AO2 SLP197 T01330089

More Conditions Fewer Conditions

10-Day Weather Forecast

Almanac

Astronomy

Dec. 17, 2014 Rise Set
Actual Time
Civil Twilight
Nautical Twilight
Astronomical Twilight
Moon
Length of Visible Light
Length of Day
Tomorrow will be .
, % of the Moon is Illuminated

Today's Extremes

State Highs State Lows

Community

WunderPhotos

Upload Photos

1,778,883 photos uploaded!

WunderBlogs® & News

Nearby

Air Quality

  Air Quality AQ Index Pollutant
Not available.

Snow Depth

Station Depth Elevation

Earthquake Activity

City Distance Mag. Time & Date
Minimum magnitude displayed is 2.5.

Coastal Water Temperatures

Place Temperature

Nearby Weather Stations